Time;durP1;ratioP1;P1;durP2;ratioP2;P2;SDS_P1;SDS_P2;PMS_P1;PMS_P2;Temp;Humidity;BMP_temperature;BMP_pressure;BME280_temperature;BME280_humidity;BME280_pressure;Samples;Min_cycle;Max_cycle;Signal;HPM_P1;HPM_P2
2023/09/11 14:23:43;;;;;;;3.40;3.10;;;38.40;31.60;;;;;;5069987;28;20390;-77
2023/09/11 14:26:10;;;;;;;3.38;3.08;;;38.00;32.30;;;;;;5054449;28;20446;-74
2023/09/11 14:28:36;;;;;;;3.17;2.88;;;37.90;31.40;;;;;;5061684;28;20428;-74
2023/09/11 14:31:03;;;;;;;3.60;2.90;;;38.10;31.60;;;;;;5061410;28;20917;-74
2023/09/11 14:33:30;;;;;;;3.22;2.65;;;38.20;32.10;;;;;;5052225;28;20438;-75
2023/09/11 14:35:56;;;;;;;3.30;3.10;;;37.70;31.10;;;;;;5047241;28;20887;-74
2023/09/11 14:38:23;;;;;;;4.97;2.80;;;37.80;31.40;;;;;;5045948;28;20438;-76
2023/09/11 14:40:51;;;;;;;3.10;2.78;;;37.90;30.80;;;;;;5053002;28;20432;-75
2023/09/11 14:43:18;;;;;;;2.90;2.70;;;38.20;30.10;;;;;;5051451;28;20454;-73
2023/09/11 14:45:45;;;;;;;2.72;2.53;;;38.50;29.80;;;;;;5043215;28;20411;-76
2023/09/11 14:48:11;;;;;;;2.90;2.70;;;38.60;29.50;;;;;;5053615;28;20436;-74
2023/09/11 14:50:38;;;;;;;3.00;2.70;;;38.80;29.20;;;;;;5046303;28;20517;-74
2023/09/11 14:53:05;;;;;;;2.97;2.40;;;38.70;29.10;;;;;;5046031;28;20707;-75
2023/09/11 14:55:31;;;;;;;2.40;2.30;;;38.70;29.30;;;;;;5044812;28;20469;-74
2023/09/11 14:57:59;;;;;;;3.03;2.72;;;38.70;29.00;;;;;;5052896;28;20880;-75
2023/09/11 15:00:26;;;;;;;2.80;2.40;;;38.70;29.40;;;;;;5051365;28;20439;-74
2023/09/11 15:02:53;;;;;;;2.78;2.30;;;38.80;29.60;;;;;;5049424;28;20462;-75
2023/09/11 15:05:20;;;;;;;2.70;2.50;;;38.90;29.40;;;;;;5045446;28;20942;-75
2023/09/11 15:07:47;;;;;;;2.53;2.33;;;39.10;29.10;;;;;;5051894;28;20443;-74
2023/09/11 15:10:13;;;;;;;2.80;2.60;;;39.00;28.80;;;;;;5047759;28;20438;-74
2023/09/11 15:12:40;;;;;;;3.90;2.67;;;38.80;28.30;;;;;;5048742;28;20498;-74
2023/09/11 15:15:09;;;;;;;2.67;2.40;;;38.50;28.40;;;;;;5055922;28;20433;-74
2023/09/11 15:17:36;;;;;;;3.22;2.60;;;38.50;28.70;;;;;;5042810;28;20426;-74
2023/09/11 15:20:03;;;;;;;3.10;2.70;;;38.50;28.50;;;;;;5046679;28;20443;-74
2023/09/11 15:22:30;;;;;;;2.80;2.50;;;38.40;28.50;;;;;;5064167;28;20879;-75
2023/09/11 15:24:58;;;;;;;4.90;2.80;;;38.40;28.90;;;;;;5069764;28;20504;-74
2023/09/11 15:27:25;;;;;;;3.10;2.72;;;38.50;28.70;;;;;;5064518;28;20435;-74
2023/09/11 15:29:51;;;;;;;4.40;2.55;;;38.40;28.90;;;;;;5062002;28;20427;-75
2023/09/11 15:32:20;;;;;;;3.60;2.70;;;38.10;29.40;;;;;;5079420;28;20741;-74
2023/09/11 15:34:48;;;;;;;2.88;2.60;;;37.50;29.80;;;;;;5058654;28;20427;-74
2023/09/11 15:37:17;;;;;;;2.80;2.60;;;37.10;31.00;;;;;;5047761;28;20431;-73
2023/09/11 15:39:44;;;;;;;4.00;2.75;;;36.90;31.30;;;;;;5062247;28;20494;-74
2023/09/11 15:42:11;;;;;;;4.17;2.60;;;36.70;31.40;;;;;;5054946;28;20771;-74
2023/09/11 15:44:38;;;;;;;4.28;3.10;;;36.60;31.30;;;;;;5052565;28;20908;-74
2023/09/11 15:47:05;;;;;;;3.15;2.65;;;36.50;31.40;;;;;;5053551;28;20768;-69
2023/09/11 15:49:33;;;;;;;3.47;2.75;;;36.40;32.90;;;;;;5052549;28;20520;-71
2023/09/11 15:52:03;;;;;;;2.97;2.77;;;35.40;35.80;;;;;;5047122;28;20413;-76
2023/09/11 15:54:29;;;;;;;4.10;3.40;;;34.40;37.40;;;;;;5059133;28;20423;-73
2023/09/11 15:56:56;;;;;;;4.30;3.40;;;34.10;36.60;;;;;;5056043;28;20448;-73
2023/09/11 15:59:23;;;;;;;3.50;3.20;;;34.00;35.40;;;;;;5055514;28;20438;-75
2023/09/11 16:01:49;;;;;;;4.55;3.20;;;34.00;35.40;;;;;;5060755;28;20523;-75
2023/09/11 16:04:16;;;;;;;4.20;3.00;;;34.00;35.80;;;;;;5052829;28;20891;-75
2023/09/11 16:06:44;;;;;;;4.80;3.30;;;34.00;34.90;;;;;;5056015;28;20600;-74
2023/09/11 16:09:11;;;;;;;5.18;3.60;;;33.80;35.50;;;;;;5066679;28;20495;-74
2023/09/11 16:11:38;;;;;;;4.20;3.55;;;33.60;35.90;;;;;;5066802;28;20414;-73
2023/09/11 16:14:05;;;;;;;5.30;3.80;;;33.40;36.50;;;;;;5049710;28;20444;-74
2023/09/11 16:16:33;;;;;;;3.97;3.67;;;33.30;36.70;;;;;;5063813;28;20545;-74
2023/09/11 16:19:00;;;;;;;5.47;3.78;;;33.10;37.60;;;;;;5064764;28;20461;-75
2023/09/11 16:21:27;;;;;;;7.50;4.00;;;33.00;38.20;;;;;;5054329;28;20417;-74
2023/09/11 16:23:55;;;;;;;6.43;4.47;;;32.80;38.90;;;;;;5051690;28;20429;-74
2023/09/11 16:26:22;;;;;;;4.70;4.30;;;32.70;39.00;;;;;;5050700;28;20890;-74
2023/09/11 16:28:48;;;;;;;4.53;4.13;;;32.70;39.70;;;;;;5053288;28;20436;-74
2023/09/11 16:31:15;;;;;;;5.10;3.90;;;32.60;39.70;;;;;;5051131;28;20436;-75
2023/09/11 16:33:42;;;;;;;5.80;4.35;;;32.50;40.10;;;;;;5059283;28;20423;-74
2023/09/11 16:36:09;;;;;;;5.38;4.22;;;32.40;40.20;;;;;;5048963;28;20427;-74
2023/09/11 16:38:36;;;;;;;4.50;4.10;;;32.30;39.70;;;;;;5046798;28;20997;-74
2023/09/11 16:41:04;;;;;;;4.63;4.20;;;32.10;40.10;;;;;;5054538;28;20437;-75
2023/09/11 16:43:30;;;;;;;5.00;3.88;;;32.10;39.90;;;;;;5052657;28;20911;-74
2023/09/11 16:45:59;;;;;;;4.70;4.25;;;32.00;40.40;;;;;;5057676;28;20526;-74
2023/09/11 16:48:26;;;;;;;6.47;4.20;;;31.80;40.30;;;;;;5051218;28;20508;-74
2023/09/11 16:50:53;;;;;;;5.57;4.60;;;31.70;40.40;;;;;;5056134;28;20458;-76
2023/09/11 16:53:19;;;;;;;4.68;4.28;;;31.60;40.50;;;;;;5058119;28;20425;-74
2023/09/11 16:55:46;;;;;;;4.50;4.10;;;31.50;39.60;;;;;;5059154;28;20415;-74
2023/09/11 16:58:14;;;;;;;4.70;4.25;;;31.40;40.10;;;;;;5046967;28;20519;-74
2023/09/11 17:00:41;;;;;;;5.00;4.50;;;31.30;40.50;;;;;;5058852;28;20489;-74
2023/09/11 17:03:08;;;;;;;4.78;4.30;;;31.30;41.30;;;;;;5053557;28;20427;-74
2023/09/11 17:05:36;;;;;;;6.50;4.90;;;31.20;41.40;;;;;;5049867;28;20900;-70
2023/09/11 17:08:03;;;;;;;6.95;5.03;;;30.90;45.60;;;;;;5050163;28;20792;-69
2023/09/11 17:10:30;;;;;;;4.50;4.10;;;30.40;46.90;;;;;;5049046;28;20466;-70
2023/09/11 17:12:56;;;;;;;6.75;4.45;;;30.00;49.10;;;;;;5056102;28;20440;-70
2023/09/11 17:15:25;;;;;;;5.55;4.70;;;29.70;49.00;;;;;;5057151;28;20452;-69
2023/09/11 17:17:51;;;;;;;5.60;5.00;;;29.50;48.80;;;;;;5045349;28;21519;-72
2023/09/11 17:20:19;;;;;;;5.90;4.97;;;29.30;50.10;;;;;;5058368;28;20443;-69
2023/09/11 17:22:46;;;;;;;5.83;5.33;;;29.20;52.10;;;;;;5064129;28;20433;-72
2023/09/11 17:25:13;;;;;;;5.40;4.90;;;29.10;52.80;;;;;;5056830;28;20786;-69
2023/09/11 17:27:40;;;;;;;6.45;5.47;;;29.00;54.10;;;;;;5049981;28;20490;-75
2023/09/11 17:30:08;;;;;;;6.68;5.18;;;28.90;54.30;;;;;;5056345;28;20484;-69
2023/09/11 17:32:39;;;;;;;5.82;5.32;;;28.80;54.80;;;;;;5057345;28;20870;-70
2023/09/11 17:35:05;;;;;;;5.45;4.95;;;28.80;55.60;;;;;;5046208;28;20437;-71
2023/09/11 17:37:32;;;;;;;6.07;5.57;;;28.60;55.70;;;;;;5044222;28;20413;-70
2023/09/11 17:39:59;;;;;;;5.85;5.35;;;28.60;56.90;;;;;;5045085;28;20429;-68
2023/09/11 17:42:26;;;;;;;5.53;5.03;;;28.50;58.00;;;;;;5048097;28;20895;-70
2023/09/11 17:44:53;;;;;;;6.00;5.50;;;28.40;57.60;;;;;;5054766;28;20451;-72
2023/09/11 17:47:20;;;;;;;6.55;5.95;;;28.40;58.50;;;;;;5050252;28;20433;-70
2023/09/11 17:49:48;;;;;;;6.70;5.80;;;28.40;58.60;;;;;;5047524;28;20439;-72
2023/09/11 17:52:15;;;;;;;6.03;5.43;;;28.30;60.20;;;;;;5057264;28;21200;-70
2023/09/11 17:54:41;;;;;;;8.02;6.60;;;28.20;60.10;;;;;;5054245;28;20542;-69
2023/09/11 17:57:08;;;;;;;7.00;6.40;;;28.20;60.30;;;;;;5046877;28;20935;-71
2023/09/11 17:59:35;;;;;;;6.20;5.60;;;28.10;60.80;;;;;;5055735;28;20417;-71
2023/09/11 18:02:04;;;;;;;7.30;6.70;;;28.00;61.10;;;;;;5052263;28;20614;-73
2023/09/11 18:04:32;;;;;;;8.00;7.22;;;27.90;61.90;;;;;;5053591;28;20437;-71
2023/09/11 18:07:00;;;;;;;15.57;13.95;;;27.90;62.90;;;;;;5050935;28;20540;-72
2023/09/11 18:09:27;;;;;;;10.40;9.30;;;27.80;61.30;;;;;;5058147;28;20810;-71
2023/09/11 18:11:54;;;;;;;8.30;7.60;;;27.80;61.40;;;;;;5048460;28;20429;-71
2023/09/11 18:14:21;;;;;;;7.80;7.00;;;27.80;61.40;;;;;;5056050;28;20842;-73
2023/09/11 18:16:48;;;;;;;8.35;6.50;;;27.70;62.30;;;;;;5043481;28;20866;-71
2023/09/11 18:19:14;;;;;;;8.38;7.07;;;27.60;62.70;;;;;;5048710;28;20427;-72
2023/09/11 18:21:41;;;;;;;7.07;6.47;;;27.60;62.90;;;;;;5047535;28;20453;-71
2023/09/11 18:24:09;;;;;;;8.82;6.22;;;27.60;62.90;;;;;;5041683;28;20933;-72
2023/09/11 18:26:37;;;;;;;6.70;6.00;;;27.50;63.60;;;;;;5044354;28;20456;-72
2023/09/11 18:29:14;;;;;;;7.70;6.53;;;27.40;63.20;;;;;;5050955;28;20431;-72
2023/09/11 18:31:40;;;;;;;7.93;6.20;;;27.40;63.50;;;;;;5053980;28;20444;-72
2023/09/11 18:34:07;;;;;;;7.35;6.05;;;27.40;63.90;;;;;;5052611;28;20417;-72
2023/09/11 18:36:34;;;;;;;8.85;6.30;;;27.40;63.20;;;;;;5057136;28;20514;-72
2023/09/11 18:39:01;;;;;;;7.00;6.30;;;27.40;63.40;;;;;;5060310;28;20439;-72
2023/09/11 18:41:29;;;;;;;6.18;5.68;;;27.40;64.50;;;;;;5049328;28;20447;-73
2023/09/11 18:43:56;;;;;;;7.45;6.70;;;27.40;64.60;;;;;;5050816;28;20484;-72
2023/09/11 18:46:23;;;;;;;8.15;6.50;;;27.30;64.10;;;;;;5049926;28;20419;-72
2023/09/11 18:48:50;;;;;;;7.80;6.20;;;27.30;64.40;;;;;;5052188;28;20936;-71
2023/09/11 18:51:17;;;;;;;6.90;6.20;;;27.20;64.70;;;;;;5054583;28;20423;-71
2023/09/11 18:53:43;;;;;;;7.00;6.10;;;27.20;65.10;;;;;;5053438;28;20428;-71
2023/09/11 18:56:10;;;;;;;7.05;5.90;;;27.20;65.70;;;;;;5049223;28;20451;-71
2023/09/11 18:58:38;;;;;;;7.00;6.30;;;27.10;65.60;;;;;;5049779;28;20443;-71
2023/09/11 19:01:05;;;;;;;6.90;6.20;;;27.00;66.40;;;;;;5052648;28;20977;-71
2023/09/11 19:03:32;;;;;;;7.53;6.60;;;27.00;66.30;;;;;;5056450;28;20429;-72
2023/09/11 19:05:59;;;;;;;6.75;6.15;;;27.00;66.50;;;;;;5046359;28;20540;-69
2023/09/11 19:08:26;;;;;;;7.15;6.45;;;27.00;66.70;;;;;;5052293;28;20501;-72
2023/09/11 19:10:53;;;;;;;6.95;6.45;;;27.00;66.90;;;;;;5050781;28;20441;-71
2023/09/11 19:13:19;;;;;;;7.90;6.82;;;27.00;67.00;;;;;;5049572;28;20445;-70
2023/09/11 19:15:47;;;;;;;7.57;6.65;;;26.90;67.40;;;;;;5058642;28;20487;-71
2023/09/11 19:18:14;;;;;;;7.90;6.70;;;26.90;67.70;;;;;;5059596;28;20435;-71
2023/09/11 19:20:41;;;;;;;7.80;7.10;;;26.90;67.60;;;;;;5055965;28;20928;-71
2023/09/11 19:23:08;;;;;;;8.00;7.20;;;26.90;67.90;;;;;;5047581;28;20437;-71
2023/09/11 19:25:34;;;;;;;9.05;6.85;;;26.90;68.20;;;;;;5053327;28;20437;-72
2023/09/11 19:28:01;;;;;;;7.30;6.70;;;26.80;67.90;;;;;;5052942;28;20471;-74
2023/09/11 19:30:28;;;;;;;7.18;6.65;;;26.80;68.50;;;;;;5051775;28;20610;-72
2023/09/11 19:32:56;;;;;;;8.32;7.30;;;26.80;68.70;;;;;;5044701;28;20413;-72
2023/09/11 19:35:23;;;;;;;7.90;7.20;;;26.70;68.80;;;;;;5063425;28;20447;-74
2023/09/11 19:37:50;;;;;;;8.20;7.50;;;26.70;68.90;;;;;;5059177;28;20427;-73
2023/09/11 19:40:17;;;;;;;8.43;7.63;;;26.60;69.30;;;;;;5064305;28;20432;-73
2023/09/11 19:42:44;;;;;;;8.30;7.60;;;26.60;69.40;;;;;;5059248;28;20955;-72
2023/09/11 19:45:11;;;;;;;7.50;6.90;;;26.60;70.00;;;;;;5053209;28;20569;-73
2023/09/11 19:47:38;;;;;;;7.50;6.90;;;26.60;70.60;;;;;;5047139;28;20437;-73
2023/09/11 19:50:07;;;;;;;9.98;7.18;;;26.50;70.70;;;;;;5062175;28;20447;-74
2023/09/11 19:52:34;;;;;;;8.23;7.22;;;26.50;70.40;;;;;;5058246;28;20493;-73
2023/09/11 19:55:01;;;;;;;8.52;7.35;;;26.50;71.20;;;;;;5053797;28;20425;-74
2023/09/11 19:57:33;;;;;;;7.80;7.10;;;26.50;72.50;;;;;;5061510;28;20919;-73
2023/09/11 19:59:59;;;;;;;7.68;7.07;;;26.50;71.70;;;;;;5058360;28;20495;-73
2023/09/11 20:02:26;;;;;;;8.05;7.35;;;26.50;71.80;;;;;;5053925;28;20428;-73
2023/09/11 20:04:53;;;;;;;8.60;7.22;;;26.50;72.80;;;;;;5059123;28;20498;-73
2023/09/11 20:07:22;;;;;;;7.70;7.10;;;26.40;72.80;;;;;;5055645;28;20445;-75
2023/09/11 20:09:50;;;;;;;7.72;6.93;;;26.40;72.10;;;;;;5049401;28;20965;-74
2023/09/11 20:12:17;;;;;;;8.00;7.40;;;26.40;72.90;;;;;;5068634;22;20863;-71
2023/09/11 20:14:44;;;;;;;8.70;7.88;;;26.30;73.10;;;;;;5051001;28;20430;-72
2023/09/11 20:17:11;;;;;;;9.23;8.25;;;26.30;73.00;;;;;;5051489;28;20436;-71
2023/09/11 20:19:38;;;;;;;8.35;7.55;;;26.20;72.80;;;;;;5059085;28;20435;-71
2023/09/11 20:22:05;;;;;;;9.60;8.70;;;26.20;73.20;;;;;;5055685;28;20429;-73
2023/09/11 20:24:33;;;;;;;8.80;8.10;;;26.20;74.00;;;;;;5059501;28;20427;-72
2023/09/11 20:27:00;;;;;;;9.45;8.50;;;26.10;74.60;;;;;;5054989;28;20410;-72
2023/09/11 20:29:26;;;;;;;9.70;8.90;;;26.10;75.20;;;;;;5048905;28;20436;-71
2023/09/11 20:31:53;;;;;;;10.45;9.30;;;26.00;76.00;;;;;;5063488;28;20436;-71
2023/09/11 20:34:20;;;;;;;9.95;9.15;;;26.00;75.70;;;;;;5067791;28;20919;-73
2023/09/11 20:36:47;;;;;;;9.73;8.73;;;25.90;75.20;;;;;;5051331;28;20423;-73
2023/09/11 20:39:13;;;;;;;10.88;9.30;;;25.90;76.20;;;;;;5056070;28;20417;-72
2023/09/11 20:41:41;;;;;;;9.60;8.80;;;25.90;76.40;;;;;;5056122;28;20405;-72
2023/09/11 20:44:08;;;;;;;9.50;8.60;;;25.90;76.40;;;;;;5077094;28;20473;-71
2023/09/11 20:46:35;;;;;;;9.20;8.30;;;25.90;76.70;;;;;;5084238;28;20512;-73
2023/09/11 20:49:03;;;;;;;9.50;8.60;;;25.90;75.80;;;;;;5065829;28;20917;-73
2023/09/11 20:51:29;;;;;;;9.50;8.50;;;25.90;75.50;;;;;;5048782;28;20423;-71
2023/09/11 20:53:56;;;;;;;9.43;8.52;;;25.90;75.70;;;;;;5047591;28;20414;-72
2023/09/11 20:56:23;;;;;;;9.30;8.50;;;25.90;75.50;;;;;;5051572;28;20433;-73
2023/09/11 20:58:51;;;;;;;9.77;8.77;;;25.90;75.40;;;;;;5052510;28;20929;-72
2023/09/11 21:01:18;;;;;;;9.05;8.25;;;25.90;75.40;;;;;;5054942;28;20883;-73
2023/09/11 21:03:44;;;;;;;9.30;8.50;;;25.90;75.40;;;;;;5050438;28;20437;-72
2023/09/11 21:06:11;;;;;;;9.45;8.18;;;25.80;75.40;;;;;;5059967;28;20516;-72
2023/09/11 21:08:39;;;;;;;9.20;8.30;;;25.80;75.30;;;;;;5066608;28;20420;-71
2023/09/11 21:11:06;;;;;;;8.30;7.50;;;25.80;75.70;;;;;;5066934;28;20420;-73
2023/09/11 21:13:33;;;;;;;8.07;7.47;;;25.70;76.30;;;;;;5053168;28;20437;-71
2023/09/11 21:16:01;;;;;;;8.30;7.60;;;25.70;76.10;;;;;;5048939;28;20799;-74
2023/09/11 21:18:28;;;;;;;8.30;7.50;;;25.70;75.70;;;;;;5046058;28;20413;-73
2023/09/11 21:20:54;;;;;;;8.65;7.88;;;25.70;75.60;;;;;;5048908;28;20422;-73
2023/09/11 21:23:21;;;;;;;8.30;7.70;;;25.70;75.70;;;;;;5054889;28;20425;-72
2023/09/11 21:25:50;;;;;;;8.45;7.65;;;25.70;75.60;;;;;;5048841;28;20540;-73
2023/09/11 21:28:16;;;;;;;8.35;7.65;;;25.70;75.80;;;;;;5047878;28;20432;-73
2023/09/11 21:30:43;;;;;;;8.18;7.30;;;25.60;76.40;;;;;;5050404;28;20440;-72
2023/09/11 21:33:11;;;;;;;8.55;7.70;;;25.60;75.90;;;;;;5048408;28;20421;-72
2023/09/11 21:35:38;;;;;;;8.43;7.63;;;25.60;76.00;;;;;;5048750;28;20413;-72
2023/09/11 21:38:05;;;;;;;8.17;7.47;;;25.60;76.10;;;;;;5049114;28;20421;-73
2023/09/11 21:40:32;;;;;;;8.60;7.90;;;25.60;75.90;;;;;;5052031;28;20411;-71
2023/09/11 21:42:59;;;;;;;7.78;7.07;;;25.60;76.20;;;;;;5052285;28;20494;-72
2023/09/11 21:45:25;;;;;;;8.20;7.40;;;25.50;76.20;;;;;;5048243;28;20440;-73
2023/09/11 21:47:55;;;;;;;8.30;7.40;;;25.50;76.40;;;;;;5049900;28;20899;-73
2023/09/11 21:50:23;;;;;;;8.18;7.38;;;25.40;76.90;;;;;;5048034;28;20475;-71
2023/09/11 21:52:49;;;;;;;8.17;7.00;;;25.40;77.00;;;;;;5048318;28;20424;-72
2023/09/11 21:55:16;;;;;;;7.88;7.18;;;25.40;77.40;;;;;;5050646;28;20420;-73
2023/09/11 21:57:43;;;;;;;8.10;7.40;;;25.30;78.60;;;;;;5045540;28;20421;-73
2023/09/11 22:00:12;;;;;;;8.10;7.40;;;25.30;78.30;;;;;;5048574;28;20695;-73
2023/09/11 22:02:39;;;;;;;7.90;7.20;;;25.20;78.60;;;;;;5044260;28;20919;-72
2023/09/11 22:05:06;;;;;;;8.57;7.88;;;25.20;78.40;;;;;;5048081;28;20425;-73
2023/09/11 22:07:34;;;;;;;8.38;7.63;;;25.20;78.70;;;;;;5048330;28;20426;-73
2023/09/11 22:10:03;;;;;;;8.30;7.60;;;25.20;79.70;;;;;;5048507;28;20424;-73
2023/09/11 22:12:30;;;;;;;8.90;8.10;;;25.20;79.00;;;;;;5040893;28;20425;-72
2023/09/11 22:14:57;;;;;;;9.85;8.95;;;25.10;80.10;;;;;;5048615;28;20428;-73
2023/09/11 22:17:24;;;;;;;8.85;8.05;;;25.10;79.50;;;;;;5048576;28;20432;-72
2023/09/11 22:19:51;;;;;;;9.20;8.50;;;25.00;80.00;;;;;;5048369;28;20413;-71
2023/09/11 22:22:17;;;;;;;9.15;8.35;;;25.00;80.00;;;;;;5043635;28;20421;-73
2023/09/11 22:24:45;;;;;;;9.90;9.10;;;25.00;80.30;;;;;;5053663;28;20460;-73
2023/09/11 22:27:12;;;;;;;10.20;9.30;;;25.00;81.00;;;;;;5050370;28;20436;-73
2023/09/11 22:29:39;;;;;;;10.70;9.70;;;24.90;81.40;;;;;;5036725;28;20418;-74
2023/09/11 22:32:06;;;;;;;10.07;9.10;;;24.90;81.70;;;;;;5047038;28;21098;-72
2023/09/11 22:34:33;;;;;;;10.15;9.15;;;24.80;82.10;;;;;;5050267;28;20788;-71
2023/09/11 22:37:01;;;;;;;10.15;9.25;;;24.80;82.70;;;;;;5051465;28;20425;-73
2023/09/11 22:39:29;;;;;;;9.35;8.55;;;24.70;82.60;;;;;;5044609;28;20763;-72
2023/09/11 22:41:57;;;;;;;10.35;9.35;;;24.70;84.50;;;;;;5043827;28;20807;-73
2023/09/11 22:44:31;;;;;;;11.07;10.10;;;24.70;83.30;;;;;;5047467;28;20425;-72
2023/09/11 22:47:00;;;;;;;10.33;9.33;;;24.60;84.10;;;;;;5051798;28;20459;-73
2023/09/11 22:49:27;;;;;;;10.20;9.20;;;24.50;84.20;;;;;;5052134;28;20420;-72
2023/09/11 22:51:54;;;;;;;10.65;9.63;;;24.50;84.10;;;;;;5055219;28;20789;-72
2023/09/11 22:54:20;;;;;;;10.88;9.63;;;24.50;84.60;;;;;;5052949;28;20417;-73
2023/09/11 22:56:47;;;;;;;9.95;9.05;;;24.40;84.60;;;;;;5055809;28;20896;-73
2023/09/11 22:59:15;;;;;;;9.80;8.80;;;24.30;85.20;;;;;;5048253;28;20422;-72
2023/09/11 23:01:42;;;;;;;10.38;9.27;;;24.30;85.70;;;;;;5054271;28;20417;-73
2023/09/11 23:04:08;;;;;;;10.07;9.00;;;24.20;85.70;;;;;;5051911;28;20428;-72
2023/09/11 23:06:35;;;;;;;11.27;8.90;;;24.20;86.50;;;;;;5052504;28;20807;-73
2023/09/11 23:09:02;;;;;;;10.88;8.07;;;24.10;86.50;;;;;;5051848;28;20494;-73
2023/09/11 23:11:28;;;;;;;8.80;7.90;;;24.10;86.60;;;;;;5051399;28;20409;-72
2023/09/11 23:13:55;;;;;;;8.80;7.90;;;24.10;86.70;;;;;;5055306;28;20413;-73
2023/09/11 23:16:23;;;;;;;9.75;8.80;;;24.10;87.60;;;;;;5052778;28;20438;-72
2023/09/11 23:18:51;;;;;;;9.10;8.20;;;24.00;88.80;;;;;;5053399;28;20416;-73
2023/09/11 23:21:18;;;;;;;8.98;8.18;;;24.00;88.30;;;;;;5050999;28;20433;-73
2023/09/11 23:23:47;;;;;;;9.77;7.82;;;23.90;88.00;;;;;;5051407;28;20421;-72
2023/09/11 23:26:14;;;;;;;7.82;7.13;;;24.00;87.70;;;;;;5051638;28;20807;-73
2023/09/11 23:28:40;;;;;;;8.40;7.60;;;23.90;88.30;;;;;;5052367;28;20413;-72
2023/09/11 23:31:07;;;;;;;8.82;7.35;;;23.90;87.80;;;;;;5054782;28;20417;-73
2023/09/11 23:33:35;;;;;;;8.10;7.30;;;23.90;89.00;;;;;;5070262;28;20436;-71
2023/09/11 23:36:02;;;;;;;7.40;6.70;;;23.90;87.90;;;;;;5070832;28;20474;-73
2023/09/11 23:38:29;;;;;;;7.97;7.28;;;23.90;88.80;;;;;;5070628;28;20875;-72
2023/09/11 23:40:56;;;;;;;8.05;6.85;;;23.80;88.90;;;;;;5063038;28;20404;-73
2023/09/11 23:43:32;;;;;;;8.00;7.20;;;23.80;88.50;;;;;;5052578;28;20943;-73
2023/09/11 23:45:59;;;;;;;8.90;7.40;;;23.80;88.50;;;;;;5050896;28;20433;-72
2023/09/11 23:48:25;;;;;;;8.00;7.30;;;23.70;88.60;;;;;;5053276;28;20959;-71
2023/09/11 23:50:54;;;;;;;8.13;7.00;;;23.60;88.60;;;;;;5056446;28;20425;-72
2023/09/11 23:53:20;;;;;;;7.60;6.90;;;23.50;90.00;;;;;;5043949;28;20809;-72
2023/09/11 23:55:47;;;;;;;7.97;7.27;;;23.40;89.70;;;;;;5056365;28;20409;-73
2023/09/11 23:58:14;;;;;;;7.70;7.00;;;23.20;90.00;;;;;;5056541;28;20432;-72
